sensor_id;sensor_type;location;lat;lon;timestamp;P1;durP1;ratioP1;P2;durP2;ratioP2
68108;SDS011;54893;49.864;19.084;2023-10-31T00:01:46;4.77;;;1.13;;
68108;SDS011;54893;49.864;19.084;2023-10-31T00:06:46;4.20;;;1.20;;
68108;SDS011;54893;49.864;19.084;2023-10-31T00:11:46;3.72;;;1.10;;
68108;SDS011;54893;49.864;19.084;2023-10-31T00:16:47;4.05;;;1.27;;
68108;SDS011;54893;49.864;19.084;2023-10-31T00:21:48;5.78;;;1.65;;
68108;SDS011;54893;49.864;19.084;2023-10-31T00:26:49;8.33;;;1.40;;
68108;SDS011;54893;49.864;19.084;2023-10-31T00:31:49;4.80;;;1.20;;
68108;SDS011;54893;49.864;19.084;2023-10-31T00:36:49;4.10;;;1.10;;
68108;SDS011;54893;49.864;19.084;2023-10-31T00:41:50;4.63;;;1.30;;
68108;SDS011;54893;49.864;19.084;2023-10-31T00:46:50;4.80;;;1.17;;
68108;SDS011;54893;49.864;19.084;2023-10-31T00:51:50;4.90;;;1.40;;
68108;SDS011;54893;49.864;19.084;2023-10-31T00:56:51;3.57;;;1.33;;
68108;SDS011;54893;49.864;19.084;2023-10-31T01:01:51;4.37;;;1.00;;
68108;SDS011;54893;49.864;19.084;2023-10-31T01:06:51;4.63;;;1.30;;
68108;SDS011;54893;49.864;19.084;2023-10-31T01:11:52;4.17;;;1.40;;
68108;SDS011;54893;49.864;19.084;2023-10-31T01:16:52;4.13;;;1.20;;
68108;SDS011;54893;49.864;19.084;2023-10-31T01:21:52;6.47;;;1.60;;
68108;SDS011;54893;49.864;19.084;2023-10-31T01:26:53;5.80;;;1.40;;
68108;SDS011;54893;49.864;19.084;2023-10-31T01:31:53;4.60;;;1.30;;
68108;SDS011;54893;49.864;19.084;2023-10-31T01:36:54;3.60;;;1.50;;
68108;SDS011;54893;49.864;19.084;2023-10-31T01:41:55;4.50;;;1.30;;
68108;SDS011;54893;49.864;19.084;2023-10-31T01:46:55;4.47;;;1.50;;
68108;SDS011;54893;49.864;19.084;2023-10-31T01:51:55;4.53;;;1.70;;
68108;SDS011;54893;49.864;19.084;2023-10-31T01:56:56;4.70;;;1.30;;
68108;SDS011;54893;49.864;19.084;2023-10-31T02:01:58;9.82;;;1.70;;
68108;SDS011;54893;49.864;19.084;2023-10-31T02:06:59;4.30;;;1.50;;
68108;SDS011;54893;49.864;19.084;2023-10-31T02:11:59;4.97;;;1.80;;
68108;SDS011;54893;49.864;19.084;2023-10-31T02:16:59;6.17;;;1.60;;
68108;SDS011;54893;49.864;19.084;2023-10-31T02:22:00;5.30;;;1.47;;
68108;SDS011;54893;49.864;19.084;2023-10-31T02:27:00;4.70;;;2.03;;
68108;SDS011;54893;49.864;19.084;2023-10-31T02:32:03;4.70;;;1.35;;
68108;SDS011;54893;49.864;19.084;2023-10-31T02:37:04;4.83;;;1.40;;
68108;SDS011;54893;49.864;19.084;2023-10-31T02:42:05;4.78;;;1.60;;
68108;SDS011;54893;49.864;19.084;2023-10-31T02:47:06;3.27;;;1.43;;
68108;SDS011;54893;49.864;19.084;2023-10-31T02:52:06;6.00;;;1.70;;
68108;SDS011;54893;49.864;19.084;2023-10-31T02:57:07;4.90;;;1.63;;
68108;SDS011;54893;49.864;19.084;2023-10-31T03:02:08;7.53;;;1.85;;
68108;SDS011;54893;49.864;19.084;2023-10-31T03:07:08;7.40;;;1.87;;
68108;SDS011;54893;49.864;19.084;2023-10-31T03:12:09;4.83;;;1.70;;
68108;SDS011;54893;49.864;19.084;2023-10-31T03:17:09;4.80;;;1.50;;
68108;SDS011;54893;49.864;19.084;2023-10-31T03:22:09;3.67;;;1.57;;
68108;SDS011;54893;49.864;19.084;2023-10-31T03:27:10;3.50;;;1.40;;
68108;SDS011;54893;49.864;19.084;2023-10-31T03:32:11;4.63;;;1.50;;
68108;SDS011;54893;49.864;19.084;2023-10-31T03:37:12;4.93;;;1.70;;
68108;SDS011;54893;49.864;19.084;2023-10-31T03:42:12;5.00;;;2.00;;
68108;SDS011;54893;49.864;19.084;2023-10-31T03:47:13;7.77;;;1.80;;
68108;SDS011;54893;49.864;19.084;2023-10-31T03:52:13;5.33;;;1.67;;
68108;SDS011;54893;49.864;19.084;2023-10-31T03:57:14;5.77;;;1.80;;
68108;SDS011;54893;49.864;19.084;2023-10-31T04:02:15;4.32;;;1.65;;
68108;SDS011;54893;49.864;19.084;2023-10-31T04:07:15;7.93;;;1.80;;
68108;SDS011;54893;49.864;19.084;2023-10-31T04:12:16;5.53;;;1.67;;
68108;SDS011;54893;49.864;19.084;2023-10-31T04:17:17;6.25;;;1.80;;
68108;SDS011;54893;49.864;19.084;2023-10-31T04:22:17;5.82;;;1.77;;
68108;SDS011;54893;49.864;19.084;2023-10-31T04:27:18;3.80;;;1.70;;
68108;SDS011;54893;49.864;19.084;2023-10-31T04:32:18;3.40;;;1.47;;
68108;SDS011;54893;49.864;19.084;2023-10-31T04:37:19;5.00;;;1.77;;
68108;SDS011;54893;49.864;19.084;2023-10-31T04:42:19;8.43;;;1.80;;
68108;SDS011;54893;49.864;19.084;2023-10-31T04:47:20;5.73;;;1.60;;
68108;SDS011;54893;49.864;19.084;2023-10-31T04:52:20;6.40;;;1.80;;
68108;SDS011;54893;49.864;19.084;2023-10-31T04:57:22;6.63;;;1.90;;
68108;SDS011;54893;49.864;19.084;2023-10-31T05:02:23;5.90;;;1.60;;
68108;SDS011;54893;49.864;19.084;2023-10-31T05:07:23;6.00;;;1.63;;
68108;SDS011;54893;49.864;19.084;2023-10-31T05:12:24;6.37;;;1.67;;
68108;SDS011;54893;49.864;19.084;2023-10-31T05:17:24;5.07;;;2.07;;
68108;SDS011;54893;49.864;19.084;2023-10-31T05:22:25;5.07;;;1.80;;
68108;SDS011;54893;49.864;19.084;2023-10-31T05:27:25;6.03;;;1.80;;
68108;SDS011;54893;49.864;19.084;2023-10-31T05:32:25;5.40;;;1.77;;
68108;SDS011;54893;49.864;19.084;2023-10-31T05:37:26;8.57;;;2.00;;
68108;SDS011;54893;49.864;19.084;2023-10-31T05:42:26;6.43;;;1.70;;
68108;SDS011;54893;49.864;19.084;2023-10-31T05:47:27;5.60;;;1.58;;
68108;SDS011;54893;49.864;19.084;2023-10-31T05:52:30;6.20;;;1.40;;
68108;SDS011;54893;49.864;19.084;2023-10-31T05:57:32;4.23;;;1.30;;
68108;SDS011;54893;49.864;19.084;2023-10-31T06:02:32;6.10;;;1.60;;
68108;SDS011;54893;49.864;19.084;2023-10-31T06:07:33;6.43;;;1.63;;
68108;SDS011;54893;49.864;19.084;2023-10-31T06:12:33;4.47;;;1.50;;
68108;SDS011;54893;49.864;19.084;2023-10-31T06:17:34;6.13;;;1.50;;
68108;SDS011;54893;49.864;19.084;2023-10-31T06:22:34;5.78;;;1.80;;
68108;SDS011;54893;49.864;19.084;2023-10-31T06:27:35;6.30;;;1.70;;
68108;SDS011;54893;49.864;19.084;2023-10-31T06:32:35;5.73;;;1.60;;
68108;SDS011;54893;49.864;19.084;2023-10-31T06:37:36;8.00;;;1.80;;
68108;SDS011;54893;49.864;19.084;2023-10-31T06:42:37;6.07;;;1.47;;
68108;SDS011;54893;49.864;19.084;2023-10-31T06:47:37;6.57;;;1.70;;
68108;SDS011;54893;49.864;19.084;2023-10-31T06:52:37;5.73;;;1.47;;
68108;SDS011;54893;49.864;19.084;2023-10-31T06:57:38;5.83;;;1.87;;
68108;SDS011;54893;49.864;19.084;2023-10-31T07:02:38;4.33;;;1.63;;
68108;SDS011;54893;49.864;19.084;2023-10-31T07:07:39;5.55;;;1.95;;
68108;SDS011;54893;49.864;19.084;2023-10-31T07:12:40;3.57;;;1.60;;
68108;SDS011;54893;49.864;19.084;2023-10-31T07:17:40;6.43;;;2.10;;
68108;SDS011;54893;49.864;19.084;2023-10-31T07:22:41;6.97;;;2.40;;
68108;SDS011;54893;49.864;19.084;2023-10-31T07:27:41;6.63;;;1.93;;
68108;SDS011;54893;49.864;19.084;2023-10-31T07:32:41;5.40;;;2.00;;
68108;SDS011;54893;49.864;19.084;2023-10-31T07:37:42;7.13;;;2.20;;
68108;SDS011;54893;49.864;19.084;2023-10-31T07:42:42;4.70;;;1.87;;
68108;SDS011;54893;49.864;19.084;2023-10-31T07:47:43;6.13;;;2.42;;
68108;SDS011;54893;49.864;19.084;2023-10-31T07:52:43;5.73;;;2.40;;
68108;SDS011;54893;49.864;19.084;2023-10-31T07:57:45;8.23;;;2.67;;
68108;SDS011;54893;49.864;19.084;2023-10-31T08:02:45;6.13;;;2.30;;
68108;SDS011;54893;49.864;19.084;2023-10-31T08:07:46;5.87;;;2.73;;
68108;SDS011;54893;49.864;19.084;2023-10-31T08:12:46;6.43;;;2.63;;
68108;SDS011;54893;49.864;19.084;2023-10-31T08:17:46;7.87;;;2.50;;
68108;SDS011;54893;49.864;19.084;2023-10-31T08:22:47;9.93;;;2.87;;
68108;SDS011;54893;49.864;19.084;2023-10-31T08:27:47;8.30;;;2.37;;
68108;SDS011;54893;49.864;19.084;2023-10-31T08:32:47;8.77;;;2.87;;
68108;SDS011;54893;49.864;19.084;2023-10-31T08:37:48;6.27;;;2.70;;
68108;SDS011;54893;49.864;19.084;2023-10-31T08:42:48;9.10;;;3.00;;
68108;SDS011;54893;49.864;19.084;2023-10-31T08:47:48;9.77;;;2.50;;
68108;SDS011;54893;49.864;19.084;2023-10-31T08:52:50;7.17;;;2.50;;
68108;SDS011;54893;49.864;19.084;2023-10-31T08:57:50;6.50;;;2.83;;
68108;SDS011;54893;49.864;19.084;2023-10-31T09:02:52;6.88;;;2.78;;
68108;SDS011;54893;49.864;19.084;2023-10-31T09:07:52;6.73;;;3.20;;
68108;SDS011;54893;49.864;19.084;2023-10-31T09:12:53;7.37;;;2.90;;
68108;SDS011;54893;49.864;19.084;2023-10-31T09:17:53;6.30;;;3.30;;
68108;SDS011;54893;49.864;19.084;2023-10-31T09:22:54;7.67;;;3.20;;
68108;SDS011;54893;49.864;19.084;2023-10-31T09:27:54;7.57;;;3.27;;
68108;SDS011;54893;49.864;19.084;2023-10-31T09:32:54;11.03;;;3.60;;
68108;SDS011;54893;49.864;19.084;2023-10-31T09:37:55;9.37;;;3.23;;
68108;SDS011;54893;49.864;19.084;2023-10-31T09:42:55;7.23;;;3.10;;
68108;SDS011;54893;49.864;19.084;2023-10-31T09:47:56;6.43;;;3.30;;
68108;SDS011;54893;49.864;19.084;2023-10-31T09:53:00;7.05;;;3.15;;
68108;SDS011;54893;49.864;19.084;2023-10-31T09:58:01;7.15;;;3.20;;
68108;SDS011;54893;49.864;19.084;2023-10-31T10:03:09;8.33;;;3.53;;
68108;SDS011;54893;49.864;19.084;2023-10-31T10:08:09;6.28;;;3.25;;
68108;SDS011;54893;49.864;19.084;2023-10-31T10:13:10;5.63;;;2.47;;
68108;SDS011;54893;49.864;19.084;2023-10-31T10:18:24;6.85;;;2.80;;
68108;SDS011;54893;49.864;19.084;2023-10-31T10:23:27;7.77;;;3.70;;
68108;SDS011;54893;49.864;19.084;2023-10-31T10:28:27;4.93;;;2.80;;
68108;SDS011;54893;49.864;19.084;2023-10-31T10:33:33;6.43;;;2.70;;
68108;SDS011;54893;49.864;19.084;2023-10-31T10:38:34;6.43;;;2.40;;
68108;SDS011;54893;49.864;19.084;2023-10-31T10:43:36;6.22;;;2.70;;
68108;SDS011;54893;49.864;19.084;2023-10-31T10:48:38;4.87;;;2.87;;
68108;SDS011;54893;49.864;19.084;2023-10-31T10:53:43;5.05;;;2.17;;
68108;SDS011;54893;49.864;19.084;2023-10-31T11:03:49;5.75;;;2.63;;
68108;SDS011;54893;49.864;19.084;2023-10-31T11:08:50;7.65;;;2.60;;
68108;SDS011;54893;49.864;19.084;2023-10-31T11:13:52;5.30;;;2.33;;
68108;SDS011;54893;49.864;19.084;2023-10-31T11:18:53;7.07;;;2.57;;
68108;SDS011;54893;49.864;19.084;2023-10-31T11:23:57;6.63;;;2.83;;
68108;SDS011;54893;49.864;19.084;2023-10-31T11:29:03;6.07;;;2.90;;
68108;SDS011;54893;49.864;19.084;2023-10-31T11:34:06;7.32;;;3.20;;
68108;SDS011;54893;49.864;19.084;2023-10-31T11:44:15;6.43;;;2.80;;
68108;SDS011;54893;49.864;19.084;2023-10-31T11:49:17;5.30;;;2.80;;
68108;SDS011;54893;49.864;19.084;2023-10-31T11:54:18;6.23;;;3.20;;
68108;SDS011;54893;49.864;19.084;2023-10-31T11:59:18;5.90;;;2.73;;
68108;SDS011;54893;49.864;19.084;2023-10-31T12:04:22;5.57;;;3.10;;
68108;SDS011;54893;49.864;19.084;2023-10-31T12:09:23;5.65;;;2.65;;
68108;SDS011;54893;49.864;19.084;2023-10-31T12:14:24;4.97;;;2.60;;
68108;SDS011;54893;49.864;19.084;2023-10-31T12:19:24;6.83;;;2.70;;
68108;SDS011;54893;49.864;19.084;2023-10-31T12:24:26;8.57;;;2.63;;
68108;SDS011;54893;49.864;19.084;2023-10-31T12:29:26;5.28;;;2.60;;
68108;SDS011;54893;49.864;19.084;2023-10-31T12:34:27;6.60;;;2.27;;
68108;SDS011;54893;49.864;19.084;2023-10-31T12:39:28;5.38;;;2.50;;
68108;SDS011;54893;49.864;19.084;2023-10-31T12:44:29;5.70;;;2.72;;
68108;SDS011;54893;49.864;19.084;2023-10-31T12:49:29;6.87;;;2.87;;
68108;SDS011;54893;49.864;19.084;2023-10-31T12:54:36;10.00;;;3.83;;
68108;SDS011;54893;49.864;19.084;2023-10-31T12:59:38;17.20;;;7.70;;
68108;SDS011;54893;49.864;19.084;2023-10-31T13:04:38;18.10;;;9.90;;
68108;SDS011;54893;49.864;19.084;2023-10-31T13:09:38;10.97;;;5.27;;
68108;SDS011;54893;49.864;19.084;2023-10-31T13:14:41;10.43;;;3.47;;
68108;SDS011;54893;49.864;19.084;2023-10-31T13:19:41;16.17;;;5.80;;
68108;SDS011;54893;49.864;19.084;2023-10-31T13:24:42;20.00;;;6.40;;
68108;SDS011;54893;49.864;19.084;2023-10-31T13:29:43;21.17;;;9.23;;
68108;SDS011;54893;49.864;19.084;2023-10-31T13:34:43;19.30;;;8.00;;
68108;SDS011;54893;49.864;19.084;2023-10-31T13:39:43;16.40;;;6.72;;
68108;SDS011;54893;49.864;19.084;2023-10-31T13:44:44;17.03;;;7.27;;
68108;SDS011;54893;49.864;19.084;2023-10-31T13:49:44;18.83;;;9.13;;
68108;SDS011;54893;49.864;19.084;2023-10-31T13:54:45;16.65;;;7.75;;
68108;SDS011;54893;49.864;19.084;2023-10-31T13:59:46;13.38;;;6.25;;
68108;SDS011;54893;49.864;19.084;2023-10-31T14:04:46;13.67;;;6.33;;
68108;SDS011;54893;49.864;19.084;2023-10-31T14:09:46;16.20;;;7.40;;
68108;SDS011;54893;49.864;19.084;2023-10-31T14:14:48;19.77;;;8.93;;
68108;SDS011;54893;49.864;19.084;2023-10-31T14:19:49;14.40;;;7.80;;
68108;SDS011;54893;49.864;19.084;2023-10-31T14:24:49;14.53;;;7.27;;
68108;SDS011;54893;49.864;19.084;2023-10-31T14:29:49;15.13;;;7.70;;
68108;SDS011;54893;49.864;19.084;2023-10-31T14:34:51;15.02;;;7.63;;
68108;SDS011;54893;49.864;19.084;2023-10-31T14:39:51;16.60;;;8.30;;
68108;SDS011;54893;49.864;19.084;2023-10-31T14:44:51;15.23;;;7.23;;
68108;SDS011;54893;49.864;19.084;2023-10-31T14:49:53;14.93;;;6.60;;
68108;SDS011;54893;49.864;19.084;2023-10-31T14:54:54;14.15;;;7.25;;
68108;SDS011;54893;49.864;19.084;2023-10-31T14:59:54;14.43;;;6.87;;
68108;SDS011;54893;49.864;19.084;2023-10-31T15:04:57;13.57;;;7.77;;
68108;SDS011;54893;49.864;19.084;2023-10-31T15:09:57;11.70;;;7.00;;
68108;SDS011;54893;49.864;19.084;2023-10-31T15:14:57;13.03;;;6.80;;
68108;SDS011;54893;49.864;19.084;2023-10-31T15:19:58;11.50;;;5.50;;
68108;SDS011;54893;49.864;19.084;2023-10-31T15:24:58;12.53;;;6.23;;
68108;SDS011;54893;49.864;19.084;2023-10-31T15:29:59;11.80;;;6.43;;
68108;SDS011;54893;49.864;19.084;2023-10-31T15:34:59;11.13;;;6.00;;
68108;SDS011;54893;49.864;19.084;2023-10-31T15:40:00;11.30;;;6.60;;
68108;SDS011;54893;49.864;19.084;2023-10-31T15:45:00;17.57;;;8.27;;
68108;SDS011;54893;49.864;19.084;2023-10-31T15:50:02;14.70;;;7.70;;
68108;SDS011;54893;49.864;19.084;2023-10-31T15:55:02;12.75;;;6.93;;
68108;SDS011;54893;49.864;19.084;2023-10-31T16:00:03;12.27;;;6.50;;
68108;SDS011;54893;49.864;19.084;2023-10-31T16:05:04;17.30;;;9.80;;
68108;SDS011;54893;49.864;19.084;2023-10-31T16:10:05;14.73;;;6.90;;
68108;SDS011;54893;49.864;19.084;2023-10-31T16:15:06;11.48;;;5.75;;
68108;SDS011;54893;49.864;19.084;2023-10-31T16:20:07;12.90;;;6.50;;
68108;SDS011;54893;49.864;19.084;2023-10-31T16:25:07;13.47;;;6.93;;
68108;SDS011;54893;49.864;19.084;2023-10-31T16:30:08;11.33;;;5.80;;
68108;SDS011;54893;49.864;19.084;2023-10-31T16:35:10;11.40;;;5.03;;
68108;SDS011;54893;49.864;19.084;2023-10-31T16:40:10;10.30;;;5.60;;
68108;SDS011;54893;49.864;19.084;2023-10-31T16:45:11;12.67;;;5.57;;
68108;SDS011;54893;49.864;19.084;2023-10-31T16:50:12;12.65;;;6.10;;
68108;SDS011;54893;49.864;19.084;2023-10-31T16:55:12;9.77;;;4.87;;
68108;SDS011;54893;49.864;19.084;2023-10-31T17:00:13;11.57;;;5.70;;
68108;SDS011;54893;49.864;19.084;2023-10-31T17:05:14;11.23;;;5.13;;
68108;SDS011;54893;49.864;19.084;2023-10-31T17:10:14;13.73;;;7.40;;
68108;SDS011;54893;49.864;19.084;2023-10-31T17:15:15;14.00;;;7.20;;
68108;SDS011;54893;49.864;19.084;2023-10-31T17:20:15;16.97;;;9.67;;
68108;SDS011;54893;49.864;19.084;2023-10-31T17:25:15;18.70;;;8.53;;
68108;SDS011;54893;49.864;19.084;2023-10-31T17:30:16;17.33;;;9.43;;
68108;SDS011;54893;49.864;19.084;2023-10-31T17:35:17;17.35;;;7.15;;
68108;SDS011;54893;49.864;19.084;2023-10-31T17:40:17;12.43;;;6.90;;
68108;SDS011;54893;49.864;19.084;2023-10-31T17:45:18;13.10;;;6.20;;
68108;SDS011;54893;49.864;19.084;2023-10-31T17:50:22;9.93;;;5.10;;
68108;SDS011;54893;49.864;19.084;2023-10-31T17:55:22;12.37;;;5.90;;
68108;SDS011;54893;49.864;19.084;2023-10-31T18:00:23;11.50;;;5.97;;
68108;SDS011;54893;49.864;19.084;2023-10-31T18:05:26;14.30;;;6.70;;
68108;SDS011;54893;49.864;19.084;2023-10-31T18:10:28;10.20;;;5.95;;
68108;SDS011;54893;49.864;19.084;2023-10-31T18:15:28;10.30;;;6.27;;
68108;SDS011;54893;49.864;19.084;2023-10-31T18:20:28;11.20;;;5.87;;
68108;SDS011;54893;49.864;19.084;2023-10-31T18:25:29;13.43;;;6.97;;
68108;SDS011;54893;49.864;19.084;2023-10-31T18:30:29;12.83;;;7.70;;
68108;SDS011;54893;49.864;19.084;2023-10-31T18:35:30;10.87;;;6.30;;
68108;SDS011;54893;49.864;19.084;2023-10-31T18:40:31;10.80;;;5.53;;
68108;SDS011;54893;49.864;19.084;2023-10-31T18:45:32;13.05;;;5.78;;
68108;SDS011;54893;49.864;19.084;2023-10-31T18:50:32;13.33;;;6.90;;
68108;SDS011;54893;49.864;19.084;2023-10-31T18:55:33;15.67;;;7.10;;
68108;SDS011;54893;49.864;19.084;2023-10-31T19:00:33;13.83;;;6.73;;
68108;SDS011;54893;49.864;19.084;2023-10-31T19:05:34;13.67;;;7.03;;
68108;SDS011;54893;49.864;19.084;2023-10-31T19:10:34;14.70;;;6.70;;
68108;SDS011;54893;49.864;19.084;2023-10-31T19:15:35;15.50;;;7.00;;
68108;SDS011;54893;49.864;19.084;2023-10-31T19:20:36;14.63;;;7.07;;
68108;SDS011;54893;49.864;19.084;2023-10-31T19:25:37;12.47;;;6.17;;
68108;SDS011;54893;49.864;19.084;2023-10-31T19:30:39;11.43;;;5.68;;
68108;SDS011;54893;49.864;19.084;2023-10-31T19:35:40;12.83;;;5.80;;
68108;SDS011;54893;49.864;19.084;2023-10-31T19:40:40;12.60;;;5.70;;
68108;SDS011;54893;49.864;19.084;2023-10-31T19:45:40;12.63;;;5.00;;
68108;SDS011;54893;49.864;19.084;2023-10-31T19:50:43;10.90;;;5.47;;
68108;SDS011;54893;49.864;19.084;2023-10-31T19:55:44;13.03;;;6.40;;
68108;SDS011;54893;49.864;19.084;2023-10-31T20:00:44;13.97;;;6.30;;
68108;SDS011;54893;49.864;19.084;2023-10-31T20:05:45;14.45;;;6.00;;
68108;SDS011;54893;49.864;19.084;2023-10-31T20:10:47;12.82;;;5.97;;
68108;SDS011;54893;49.864;19.084;2023-10-31T20:15:47;14.30;;;6.93;;
68108;SDS011;54893;49.864;19.084;2023-10-31T20:20:49;14.65;;;6.85;;
68108;SDS011;54893;49.864;19.084;2023-10-31T20:25:50;11.53;;;5.73;;
68108;SDS011;54893;49.864;19.084;2023-10-31T20:30:51;12.63;;;5.97;;
68108;SDS011;54893;49.864;19.084;2023-10-31T20:35:52;14.73;;;6.55;;
68108;SDS011;54893;49.864;19.084;2023-10-31T20:40:52;12.30;;;6.37;;
68108;SDS011;54893;49.864;19.084;2023-10-31T20:45:53;11.37;;;6.30;;
68108;SDS011;54893;49.864;19.084;2023-10-31T20:50:53;10.60;;;5.30;;
68108;SDS011;54893;49.864;19.084;2023-10-31T20:55:53;11.47;;;6.30;;
68108;SDS011;54893;49.864;19.084;2023-10-31T21:00:54;11.37;;;5.50;;
68108;SDS011;54893;49.864;19.084;2023-10-31T21:05:58;12.68;;;6.25;;
68108;SDS011;54893;49.864;19.084;2023-10-31T21:10:59;10.07;;;5.43;;
68108;SDS011;54893;49.864;19.084;2023-10-31T21:15:59;10.77;;;5.47;;
68108;SDS011;54893;49.864;19.084;2023-10-31T21:21:00;11.27;;;5.47;;
68108;SDS011;54893;49.864;19.084;2023-10-31T21:26:00;10.20;;;5.83;;
68108;SDS011;54893;49.864;19.084;2023-10-31T21:31:00;12.23;;;5.70;;
68108;SDS011;54893;49.864;19.084;2023-10-31T21:36:01;11.77;;;6.07;;
68108;SDS011;54893;49.864;19.084;2023-10-31T21:41:01;13.63;;;7.47;;
68108;SDS011;54893;49.864;19.084;2023-10-31T21:46:02;12.47;;;6.97;;
68108;SDS011;54893;49.864;19.084;2023-10-31T21:51:03;13.88;;;7.05;;
68108;SDS011;54893;49.864;19.084;2023-10-31T21:56:04;12.00;;;6.60;;
68108;SDS011;54893;49.864;19.084;2023-10-31T22:01:05;14.00;;;7.30;;
68108;SDS011;54893;49.864;19.084;2023-10-31T22:06:05;13.63;;;6.13;;
68108;SDS011;54893;49.864;19.084;2023-10-31T22:11:06;12.83;;;6.80;;
68108;SDS011;54893;49.864;19.084;2023-10-31T22:16:06;13.47;;;7.70;;
68108;SDS011;54893;49.864;19.084;2023-10-31T22:21:07;16.07;;;7.53;;
68108;SDS011;54893;49.864;19.084;2023-10-31T22:26:11;14.18;;;7.47;;
68108;SDS011;54893;49.864;19.084;2023-10-31T22:31:11;15.10;;;7.00;;
68108;SDS011;54893;49.864;19.084;2023-10-31T22:36:11;15.93;;;7.03;;
68108;SDS011;54893;49.864;19.084;2023-10-31T22:41:12;13.57;;;7.75;;
68108;SDS011;54893;49.864;19.084;2023-10-31T22:46:12;14.63;;;7.00;;
68108;SDS011;54893;49.864;19.084;2023-10-31T22:51:13;12.57;;;7.13;;
68108;SDS011;54893;49.864;19.084;2023-10-31T22:56:13;14.00;;;6.73;;
68108;SDS011;54893;49.864;19.084;2023-10-31T23:01:13;12.93;;;6.40;;
68108;SDS011;54893;49.864;19.084;2023-10-31T23:06:14;12.73;;;6.23;;
68108;SDS011;54893;49.864;19.084;2023-10-31T23:11:14;12.90;;;6.80;;
68108;SDS011;54893;49.864;19.084;2023-10-31T23:16:15;12.80;;;6.80;;
68108;SDS011;54893;49.864;19.084;2023-10-31T23:21:15;12.03;;;6.90;;
68108;SDS011;54893;49.864;19.084;2023-10-31T23:26:15;12.77;;;7.30;;
68108;SDS011;54893;49.864;19.084;2023-10-31T23:31:16;10.83;;;6.10;;
68108;SDS011;54893;49.864;19.084;2023-10-31T23:36:16;11.87;;;7.07;;
68108;SDS011;54893;49.864;19.084;2023-10-31T23:41:17;12.47;;;6.73;;
68108;SDS011;54893;49.864;19.084;2023-10-31T23:46:17;13.03;;;6.50;;
68108;SDS011;54893;49.864;19.084;2023-10-31T23:51:18;11.87;;;6.57;;
68108;SDS011;54893;49.864;19.084;2023-10-31T23:56:19;14.65;;;6.68;;
